Mundo Novo, Brazil
Current Conditions -  °F | °C
As of 7:00 PM on Sunday 25 Jan 2015 (Local Time) from SBCA Reporting Station
Thunderstorm Thunderstorm  
Wind Chill: 77°   Ceiling: 4000
Heat Index: 78°   Visibility: 5mi
Dew Point: 75°   Wind: 12mph
Humidity: 94%   Direction: 270°W
Pressure: NA   Gusts: NA
Location:  23.94°S, 54.27°W
Report Text: SBCA 252200Z 27010KT 8000 -TSRA SCT025 BKN040 FEW050CB 25/24 Q1017
Loading
Personal Weather Stations






























Interactive Weather Map New forecast layout! Learn more

10-Day Weather Forecast

Advertisements
Track Severe Weather on mobile